createdAt,value
2023-12-11T00:00:31.470Z,95169.00
2023-12-11T00:01:31.549Z,95177.00
2023-12-11T00:02:31.441Z,95184.00
2023-12-11T00:03:31.583Z,95180.00
2023-12-11T00:04:31.432Z,95177.00
2023-12-11T00:05:31.454Z,95179.00
2023-12-11T00:06:31.463Z,95187.00
2023-12-11T00:07:31.593Z,95191.00
2023-12-11T00:08:31.390Z,95184.00
2023-12-11T00:09:31.404Z,95175.00
2023-12-11T00:10:31.381Z,95167.00
2023-12-11T00:11:31.359Z,95161.00
2023-12-11T00:12:31.367Z,95166.00
2023-12-11T00:13:31.327Z,95177.00
2023-12-11T00:14:31.329Z,95184.00
2023-12-11T00:15:31.338Z,95175.00
2023-12-11T00:16:31.316Z,95169.00
2023-12-11T00:17:31.636Z,95169.00
2023-12-11T00:18:31.376Z,95166.00
2023-12-11T00:19:31.283Z,95162.00
2023-12-11T00:20:31.279Z,95158.00
2023-12-11T00:21:31.298Z,95153.00
2023-12-11T00:22:31.255Z,95153.00
2023-12-11T00:23:31.253Z,95155.00
2023-12-11T00:24:31.282Z,95161.00
2023-12-11T00:25:31.221Z,95161.00
2023-12-11T00:26:31.230Z,95162.00
2023-12-11T00:27:31.383Z,95162.00
2023-12-11T00:28:31.206Z,95159.00
2023-12-11T00:29:31.283Z,95156.00
2023-12-11T00:30:31.273Z,95150.00
2023-12-11T00:31:31.181Z,95145.00
2023-12-11T00:32:31.177Z,95137.00
2023-12-11T00:33:31.239Z,95134.00
2023-12-11T00:34:31.226Z,95139.00
2023-12-11T00:35:31.131Z,95143.00
2023-12-11T00:36:31.153Z,95146.00
2023-12-11T00:37:31.391Z,95151.00
2023-12-11T00:38:31.104Z,95153.00
2023-12-11T00:39:31.130Z,95157.00
2023-12-11T00:40:31.097Z,95154.00
2023-12-11T00:41:31.087Z,95152.00
2023-12-11T00:42:31.115Z,95156.00
2023-12-11T00:43:44.286Z,95160.00
2023-12-11T00:44:32.058Z,95162.00
2023-12-11T00:45:31.084Z,95169.00
2023-12-11T00:46:31.050Z,95172.00
2023-12-11T00:47:31.363Z,95172.00
2023-12-11T00:48:31.134Z,95168.00
2023-12-11T00:49:31.075Z,95163.00
2023-12-11T00:50:31.010Z,95166.00
2023-12-11T00:51:31.030Z,95161.00
2023-12-11T00:52:30.984Z,95156.00
2023-12-11T00:53:30.978Z,95152.00
2023-12-11T00:54:30.987Z,95149.00
2023-12-11T00:55:30.964Z,95148.00
2023-12-11T00:56:30.946Z,95149.00
2023-12-11T00:57:31.329Z,95150.00
2023-12-11T00:58:30.922Z,95147.00
2023-12-11T00:59:30.958Z,95144.00
2023-12-11T01:00:31.028Z,95133.00
2023-12-11T01:01:30.978Z,95135.00
2023-12-11T01:02:30.892Z,95138.00
2023-12-11T01:03:30.976Z,95144.00
2023-12-11T01:04:30.937Z,95149.00
2023-12-11T01:05:30.938Z,95149.00
2023-12-11T01:06:30.849Z,95149.00
2023-12-11T01:07:31.300Z,95152.00
2023-12-11T01:08:30.830Z,95153.00
2023-12-11T01:09:30.878Z,95154.00
2023-12-11T01:10:30.816Z,95155.00
2023-12-11T01:11:30.827Z,95153.00
2023-12-11T01:12:30.837Z,95157.00
2023-12-11T01:13:30.798Z,95158.00
2023-12-11T01:14:30.770Z,95161.00
2023-12-11T01:15:30.798Z,95158.00
2023-12-11T01:16:30.779Z,95154.00
2023-12-11T01:17:38.737Z,95159.00
2023-12-11T01:18:31.908Z,95163.00
2023-12-11T01:19:30.919Z,95168.00
2023-12-11T01:20:30.717Z,95175.00
2023-12-11T01:21:30.738Z,95172.00
2023-12-11T01:22:30.701Z,95167.00
2023-12-11T01:23:30.694Z,95167.00
2023-12-11T01:24:30.763Z,95176.00
2023-12-11T01:25:30.675Z,95181.00
2023-12-11T01:26:30.660Z,95187.00
2023-12-11T01:27:31.163Z,95186.00
2023-12-11T01:28:30.655Z,95187.00
2023-12-11T01:29:30.646Z,95189.00
2023-12-11T01:30:30.621Z,95194.00
2023-12-11T01:31:30.623Z,95198.00
2023-12-11T01:32:30.634Z,95202.00
2023-12-11T01:33:30.653Z,95209.00
2023-12-11T01:34:30.726Z,95207.00
2023-12-11T01:35:30.597Z,95206.00
2023-12-11T01:36:30.600Z,95209.00
2023-12-11T01:37:30.807Z,95213.00
2023-12-11T01:38:30.553Z,95214.00
2023-12-11T01:39:30.588Z,95214.00
2023-12-11T01:40:30.531Z,95208.00
2023-12-11T01:41:30.536Z,95205.00
2023-12-11T01:42:30.601Z,95201.00
2023-12-11T01:43:30.551Z,95201.00
2023-12-11T01:44:30.530Z,95208.00
2023-12-11T01:45:30.499Z,95213.00
2023-12-11T01:46:30.484Z,95215.00
2023-12-11T01:47:30.821Z,95215.00
2023-12-11T01:48:30.604Z,95220.00
2023-12-11T01:49:30.618Z,95223.00
2023-12-11T01:50:30.437Z,95222.00
2023-12-11T01:51:30.480Z,95220.00
2023-12-11T01:52:30.428Z,95218.00
2023-12-11T01:53:30.422Z,95220.00
2023-12-11T01:54:30.439Z,95224.00
2023-12-11T01:55:30.411Z,95235.00
2023-12-11T01:56:30.392Z,95245.00
2023-12-11T01:57:30.644Z,95243.00
2023-12-11T01:58:30.380Z,95235.00
2023-12-11T01:59:30.371Z,95231.00
2023-12-11T02:00:30.364Z,95232.00
2023-12-11T02:01:30.420Z,95229.00
2023-12-11T02:02:30.345Z,95226.00
2023-12-11T02:03:30.416Z,95226.00
2023-12-11T02:04:30.519Z,95228.00
2023-12-11T02:05:30.356Z,95227.00
2023-12-11T02:06:30.412Z,95222.00
2023-12-11T02:07:30.593Z,95217.00
2023-12-11T02:08:30.282Z,95202.00
2023-12-11T02:09:30.298Z,95191.00
2023-12-11T02:10:30.263Z,95190.00
2023-12-11T02:11:30.328Z,95187.00
2023-12-11T02:12:30.283Z,95182.00
2023-12-11T02:13:30.251Z,95173.00
2023-12-11T02:14:30.217Z,95167.00
2023-12-11T02:15:30.236Z,95165.00
2023-12-11T02:16:30.210Z,95169.00
2023-12-11T02:17:30.458Z,95163.00
2023-12-11T02:18:30.374Z,95155.00
2023-12-11T02:19:30.217Z,95150.00
2023-12-11T02:20:30.244Z,95158.00
2023-12-11T02:21:30.220Z,95173.00
2023-12-11T02:22:30.151Z,95190.00
2023-12-11T02:23:30.143Z,95202.00
2023-12-11T02:24:30.135Z,95208.00
2023-12-11T02:25:30.124Z,95214.00
2023-12-11T02:26:30.126Z,95216.00
2023-12-11T02:27:30.306Z,95213.00
2023-12-11T02:28:30.090Z,95208.00
2023-12-11T02:29:30.085Z,95209.00
2023-12-11T02:30:30.097Z,95207.00
2023-12-11T02:31:30.077Z,95203.00
2023-12-11T02:32:30.096Z,95202.00
2023-12-11T02:33:30.108Z,95205.00
2023-12-11T02:34:30.139Z,95212.00
2023-12-11T02:35:30.032Z,95222.00
2023-12-11T02:36:30.085Z,95225.00
2023-12-11T02:37:30.140Z,95226.00
2023-12-11T02:38:30.047Z,95227.00
2023-12-11T02:39:30.016Z,95230.00
2023-12-11T02:40:29.980Z,95235.00
2023-12-11T02:41:29.991Z,95241.00
2023-12-11T02:42:30.016Z,95247.00
2023-12-11T02:43:29.978Z,95247.00
2023-12-11T02:44:29.936Z,95248.00
2023-12-11T02:45:30.002Z,95243.00
2023-12-11T02:46:29.954Z,95242.00
2023-12-11T02:47:30.147Z,95241.00
2023-12-11T02:48:29.951Z,95241.00
2023-12-11T02:49:29.961Z,95237.00
2023-12-11T02:50:29.892Z,95237.00
2023-12-11T02:51:29.935Z,95243.00
2023-12-11T02:52:29.886Z,95246.00
2023-12-11T02:53:29.878Z,95249.00
2023-12-11T02:54:30.010Z,95243.00
2023-12-11T02:55:29.853Z,95237.00
2023-12-11T02:56:30.497Z,95237.00
2023-12-11T02:57:30.011Z,95238.00
2023-12-11T02:58:29.816Z,95241.00
2023-12-11T02:59:29.823Z,95253.00
2023-12-11T03:00:29.800Z,95255.00
2023-12-11T03:01:29.878Z,95253.00
2023-12-11T03:02:29.806Z,95251.00
2023-12-11T03:03:29.802Z,95248.00
2023-12-11T03:04:29.882Z,95252.00
2023-12-11T03:05:29.762Z,95260.00
2023-12-11T03:06:29.795Z,95271.00
2023-12-11T03:07:29.981Z,95281.00
2023-12-11T03:08:29.738Z,95280.00
2023-12-11T03:09:29.734Z,95278.00
2023-12-11T03:10:29.714Z,95282.00
2023-12-11T03:11:29.709Z,95289.00
2023-12-11T03:12:29.702Z,95292.00
2023-12-11T03:13:29.690Z,95286.00
2023-12-11T03:14:29.689Z,95279.00
2023-12-11T03:15:29.670Z,95281.00
2023-12-11T03:16:29.677Z,95294.00
2023-12-11T03:17:29.928Z,95302.00
2023-12-11T03:18:29.698Z,95301.00
2023-12-11T03:19:29.709Z,95302.00
2023-12-11T03:20:29.640Z,95302.00
2023-12-11T03:21:29.637Z,95298.00
2023-12-11T03:22:29.625Z,95296.00
2023-12-11T03:23:29.606Z,95291.00
2023-12-11T03:24:29.582Z,95285.00
2023-12-11T03:25:29.590Z,95273.00
2023-12-11T03:26:29.566Z,95272.00
2023-12-11T03:27:29.775Z,95275.00
2023-12-11T03:28:29.557Z,95270.00
2023-12-11T03:29:29.547Z,95266.00
2023-12-11T03:30:29.532Z,95268.00
2023-12-11T03:31:29.527Z,95253.00
2023-12-11T03:32:29.530Z,95243.00
2023-12-11T03:33:29.537Z,95250.00
2023-12-11T03:34:29.512Z,95249.00
2023-12-11T03:35:29.486Z,95249.00
2023-12-11T03:36:29.482Z,95252.00
2023-12-11T03:37:29.656Z,95257.00
2023-12-11T03:38:29.473Z,95262.00
2023-12-11T03:39:29.454Z,95260.00
2023-12-11T03:40:29.452Z,95265.00
2023-12-11T03:41:29.443Z,95266.00
2023-12-11T03:42:29.429Z,95266.00
2023-12-11T03:43:29.428Z,95269.00
2023-12-11T03:44:29.401Z,95269.00
2023-12-11T03:45:29.417Z,95270.00
2023-12-11T03:46:29.386Z,95271.00
2023-12-11T03:47:29.747Z,95274.00
2023-12-11T03:48:29.449Z,95277.00
2023-12-11T03:49:29.458Z,95278.00
2023-12-11T03:50:29.343Z,95282.00
2023-12-11T03:51:29.348Z,95287.00
2023-12-11T03:52:29.327Z,95294.00
2023-12-11T03:53:29.324Z,95293.00
2023-12-11T03:54:29.319Z,95286.00
2023-12-11T03:55:29.332Z,95271.00
2023-12-11T03:56:29.314Z,95268.00
2023-12-11T03:57:29.568Z,95273.00
2023-12-11T03:58:29.281Z,95275.00
2023-12-11T03:59:29.282Z,95278.00
2023-12-11T04:00:29.277Z,95276.00
2023-12-11T04:01:29.388Z,95269.00
2023-12-11T04:02:29.411Z,95269.00
2023-12-11T04:03:29.259Z,95267.00
2023-12-11T04:04:29.305Z,95269.00
2023-12-11T04:05:29.310Z,95278.00
2023-12-11T04:06:29.203Z,95294.00
2023-12-11T04:07:29.433Z,95302.00
2023-12-11T04:08:29.191Z,95296.00
2023-12-11T04:09:29.193Z,95281.00
2023-12-11T04:10:29.167Z,95274.00
2023-12-11T04:11:29.170Z,95280.00
2023-12-11T04:12:29.146Z,95277.00
2023-12-11T04:13:29.151Z,95281.00
2023-12-11T04:14:29.136Z,95300.00
2023-12-11T04:15:29.147Z,95295.00
2023-12-11T04:16:29.110Z,95276.00
2023-12-11T04:17:29.352Z,95287.00
2023-12-11T04:18:29.127Z,95312.00
2023-12-11T04:19:29.155Z,95322.00
2023-12-11T04:20:29.076Z,95331.00
2023-12-11T04:21:29.072Z,95336.00
2023-12-11T04:22:29.068Z,95333.00
2023-12-11T04:23:29.051Z,95326.00
2023-12-11T04:24:29.046Z,95326.00
2023-12-11T04:25:29.040Z,95323.00
2023-12-11T04:26:29.027Z,95325.00
2023-12-11T04:27:29.102Z,95326.00
2023-12-11T04:28:28.999Z,95327.00
2023-12-11T04:29:29.011Z,95317.00
2023-12-11T04:30:28.980Z,95310.00
2023-12-11T04:31:33.511Z,95305.00
2023-12-11T04:32:29.000Z,95307.00
2023-12-11T04:33:29.070Z,95303.00
2023-12-11T04:34:28.976Z,95299.00
2023-12-11T04:35:28.945Z,95298.00
2023-12-11T04:36:28.926Z,95312.00
2023-12-11T04:37:29.110Z,95329.00
2023-12-11T04:38:28.905Z,95333.00
2023-12-11T04:39:28.901Z,95336.00
2023-12-11T04:40:28.892Z,95337.00
2023-12-11T04:41:28.883Z,95331.00
2023-12-11T04:42:28.881Z,95329.00
2023-12-11T04:43:31.746Z,95335.00
2023-12-11T04:44:28.860Z,95340.00
2023-12-11T04:45:28.853Z,95332.00
2023-12-11T04:46:28.843Z,95320.00
2023-12-11T04:47:29.086Z,95326.00
2023-12-11T04:48:28.935Z,95328.00
2023-12-11T04:49:28.890Z,95317.00
2023-12-11T04:50:28.806Z,95305.00
2023-12-11T04:51:28.790Z,95303.00
2023-12-11T04:52:28.785Z,95302.00
2023-12-11T04:53:28.829Z,95302.00
2023-12-11T04:54:28.763Z,95303.00
2023-12-11T04:55:28.807Z,95302.00
2023-12-11T04:56:28.738Z,95300.00
2023-12-11T04:57:28.955Z,95294.00
2023-12-11T04:58:28.729Z,95296.00
2023-12-11T04:59:28.734Z,95299.00
2023-12-11T05:00:28.740Z,95307.00
2023-12-11T05:01:28.762Z,95307.00
2023-12-11T05:02:28.719Z,95305.00
2023-12-11T05:03:28.687Z,95304.00
2023-12-11T05:04:28.682Z,95312.00
2023-12-11T05:05:28.674Z,95317.00
2023-12-11T05:06:28.674Z,95314.00
2023-12-11T05:07:28.933Z,95308.00
2023-12-11T05:08:30.470Z,95304.00
2023-12-11T05:09:28.615Z,95304.00
2023-12-11T05:10:28.625Z,95301.00
2023-12-11T05:11:28.619Z,95300.00
2023-12-11T05:12:28.604Z,95296.00
2023-12-11T05:13:28.585Z,95286.00
2023-12-11T05:14:29.595Z,95282.00
2023-12-11T05:15:28.574Z,95284.00
2023-12-11T05:16:28.638Z,95292.00
2023-12-11T05:17:28.689Z,95297.00
2023-12-11T05:18:28.544Z,95302.00
2023-12-11T05:19:28.609Z,95298.00
2023-12-11T05:20:28.525Z,95300.00
2023-12-11T05:21:28.516Z,95308.00
2023-12-11T05:22:28.512Z,95310.00
2023-12-11T05:23:28.505Z,95317.00
2023-12-11T05:24:28.489Z,95318.00
2023-12-11T05:25:28.478Z,95313.00
2023-12-11T05:26:28.497Z,95307.00
2023-12-11T05:27:33.205Z,95301.00
2023-12-11T05:28:28.460Z,95301.00
2023-12-11T05:29:28.442Z,95299.00
2023-12-11T05:30:28.456Z,95294.00
2023-12-11T05:31:28.418Z,95292.00
2023-12-11T05:32:28.440Z,95289.00
2023-12-11T05:33:28.459Z,95284.00
2023-12-11T05:34:28.445Z,95280.00
2023-12-11T05:35:28.388Z,95275.00
2023-12-11T05:36:28.385Z,95271.00
2023-12-11T05:37:28.626Z,95277.00
2023-12-11T05:38:28.365Z,95282.00
2023-12-11T05:39:28.346Z,95282.00
2023-12-11T05:40:28.480Z,95277.00
2023-12-11T05:41:28.339Z,95271.00
2023-12-11T05:42:28.349Z,95264.00
2023-12-11T05:43:28.318Z,95256.00
2023-12-11T05:44:28.321Z,95251.00
2023-12-11T05:45:28.309Z,95251.00
2023-12-11T05:46:28.294Z,95255.00
2023-12-11T05:47:28.648Z,95262.00
2023-12-11T05:48:28.339Z,95262.00
2023-12-11T05:49:28.364Z,95261.00
2023-12-11T05:50:28.443Z,95263.00
2023-12-11T05:51:28.254Z,95260.00
2023-12-11T05:52:28.260Z,95258.00
2023-12-11T05:53:28.225Z,95256.00
2023-12-11T05:54:28.232Z,95253.00
2023-12-11T05:55:28.202Z,95252.00
2023-12-11T05:56:28.229Z,95251.00
2023-12-11T05:57:28.528Z,95253.00
2023-12-11T05:58:28.227Z,95252.00
2023-12-11T05:59:28.191Z,95255.00
2023-12-11T06:00:38.256Z,95257.00
2023-12-11T06:01:28.250Z,95260.00
2023-12-11T06:02:28.195Z,95266.00
2023-12-11T06:03:28.191Z,95270.00
2023-12-11T06:04:28.135Z,95272.00
2023-12-11T06:05:28.222Z,95276.00
2023-12-11T06:06:30.954Z,95275.00
2023-12-11T06:07:28.250Z,95271.00
2023-12-11T06:08:28.101Z,95269.00
2023-12-11T06:09:28.088Z,95272.00
2023-12-11T06:10:28.122Z,95279.00
2023-12-11T06:11:28.058Z,95290.00
2023-12-11T06:12:28.087Z,95295.00
2023-12-11T06:13:28.048Z,95283.00
2023-12-11T06:14:28.048Z,95266.00
2023-12-11T06:15:28.052Z,95249.00
2023-12-11T06:16:28.030Z,95245.00
2023-12-11T06:17:28.162Z,95246.00
2023-12-11T06:18:28.089Z,95252.00
2023-12-11T06:19:28.141Z,95258.00
2023-12-11T06:20:28.003Z,95258.00
2023-12-11T06:21:27.973Z,95255.00
2023-12-11T06:22:27.982Z,95251.00
2023-12-11T06:23:27.972Z,95246.00
2023-12-11T06:24:27.958Z,95242.00
2023-12-11T06:25:27.951Z,95250.00
2023-12-11T06:26:27.934Z,95252.00
2023-12-11T06:27:28.076Z,95257.00
2023-12-11T06:28:27.973Z,95258.00
2023-12-11T06:29:27.906Z,95257.00
2023-12-11T06:30:27.897Z,95254.00
2023-12-11T06:31:27.885Z,95250.00
2023-12-11T06:32:27.908Z,95250.00
2023-12-11T06:33:27.894Z,95256.00
2023-12-11T06:34:27.914Z,95258.00
2023-12-11T06:35:27.852Z,95259.00
2023-12-11T06:36:27.867Z,95267.00
2023-12-11T06:37:27.947Z,95272.00
2023-12-11T06:38:27.836Z,95273.00
2023-12-11T06:39:27.816Z,95264.00
2023-12-11T06:40:27.885Z,95255.00
2023-12-11T06:41:27.805Z,95252.00
2023-12-11T06:42:27.812Z,95257.00
2023-12-11T06:43:27.784Z,95263.00
2023-12-11T06:44:27.854Z,95261.00
2023-12-11T06:45:29.020Z,95257.00
2023-12-11T06:46:27.956Z,95251.00
2023-12-11T06:47:28.129Z,95244.00
2023-12-11T06:48:27.989Z,95237.00
2023-12-11T06:49:28.058Z,95239.00
2023-12-11T06:50:28.063Z,95237.00
2023-12-11T06:51:27.933Z,95236.00
2023-12-11T06:52:27.944Z,95238.00
2023-12-11T06:53:27.932Z,95241.00
2023-12-11T06:54:27.921Z,95233.00
2023-12-11T06:55:28.000Z,95221.00
2023-12-11T06:56:27.999Z,95223.00
2023-12-11T06:57:28.211Z,95238.00
2023-12-11T06:58:33.147Z,95265.00
2023-12-11T06:59:28.112Z,95284.00
2023-12-11T07:00:28.126Z,95280.00
2023-12-11T07:01:28.167Z,95268.00
2023-12-11T07:02:28.248Z,95261.00
2023-12-11T07:03:28.117Z,95262.00
2023-12-11T07:04:28.198Z,95262.00
2023-12-11T07:05:28.186Z,95263.00
2023-12-11T07:06:28.058Z,95269.00
2023-12-11T07:07:28.207Z,95276.00
2023-12-11T07:08:27.996Z,95284.00
2023-12-11T07:09:27.992Z,95289.00
2023-12-11T07:10:28.023Z,95292.00
2023-12-11T07:11:27.974Z,95294.00
2023-12-11T07:12:27.976Z,95294.00
2023-12-11T07:13:28.052Z,95293.00
2023-12-11T07:14:27.955Z,95289.00
2023-12-11T07:15:27.947Z,95291.00
2023-12-11T07:16:27.940Z,95293.00
2023-12-11T07:17:28.149Z,95290.00
2023-12-11T07:18:27.998Z,95278.00
2023-12-11T07:19:28.037Z,95264.00
2023-12-11T07:20:27.898Z,95260.00
2023-12-11T07:21:27.897Z,95264.00
2023-12-11T07:22:27.885Z,95274.00
2023-12-11T07:23:27.870Z,95283.00
2023-12-11T07:24:27.858Z,95286.00
2023-12-11T07:25:27.950Z,95288.00
2023-12-11T07:26:27.843Z,95285.00
2023-12-11T07:27:28.078Z,95282.00
2023-12-11T07:28:27.838Z,95277.00
2023-12-11T07:29:27.811Z,95268.00
2023-12-11T07:30:27.826Z,95262.00
2023-12-11T07:31:27.796Z,95259.00
2023-12-11T07:32:27.840Z,95258.00
2023-12-11T07:33:27.825Z,95249.00
2023-12-11T07:34:27.861Z,95247.00
2023-12-11T07:35:27.769Z,95249.00
2023-12-11T07:36:27.761Z,95257.00
2023-12-11T07:37:27.866Z,95263.00
2023-12-11T07:38:27.741Z,95271.00
2023-12-11T07:39:27.736Z,95281.00
2023-12-11T07:40:27.781Z,95289.00
2023-12-11T07:41:27.716Z,95290.00
2023-12-11T07:42:27.740Z,95285.00
2023-12-11T07:43:27.695Z,95284.00
2023-12-11T07:44:27.689Z,95283.00
2023-12-11T07:45:27.671Z,95276.00
2023-12-11T07:46:27.680Z,95266.00
2023-12-11T07:47:27.884Z,95256.00
2023-12-11T07:48:27.763Z,95251.00
2023-12-11T07:49:27.761Z,95252.00
2023-12-11T07:50:27.644Z,95249.00
2023-12-11T07:51:27.642Z,95245.00
2023-12-11T07:52:27.639Z,95248.00
2023-12-11T07:53:27.608Z,95250.00
2023-12-11T07:54:27.598Z,95253.00
2023-12-11T07:55:27.594Z,95255.00
2023-12-11T07:56:27.588Z,95259.00
2023-12-11T07:57:27.814Z,95260.00
2023-12-11T07:58:27.568Z,95257.00
2023-12-11T07:59:27.561Z,95254.00
2023-12-11T08:00:27.613Z,95253.00
2023-12-11T08:01:27.731Z,95249.00
2023-12-11T08:02:27.722Z,95242.00
2023-12-11T08:03:27.792Z,95235.00
2023-12-11T08:04:27.885Z,95232.00
2023-12-11T08:05:27.888Z,95224.00
2023-12-11T08:06:27.919Z,95221.00
2023-12-11T08:07:28.059Z,95225.00
2023-12-11T08:08:28.034Z,95225.00
2023-12-11T08:09:28.063Z,95226.00
2023-12-11T08:10:28.186Z,95233.00
2023-12-11T08:11:28.202Z,95236.00
2023-12-11T08:12:28.222Z,95240.00
2023-12-11T08:13:28.269Z,95243.00
2023-12-11T08:14:28.315Z,95245.00
2023-12-11T08:15:28.361Z,95248.00
2023-12-11T08:16:28.448Z,95246.00
2023-12-11T08:17:28.766Z,95241.00
2023-12-11T08:18:28.568Z,95234.00
2023-12-11T08:19:28.629Z,95228.00
2023-12-11T08:20:28.629Z,95221.00
2023-12-11T08:21:28.674Z,95215.00
2023-12-11T08:22:28.721Z,95215.00
2023-12-11T08:23:28.765Z,95217.00
2023-12-11T08:24:28.818Z,95216.00
2023-12-11T08:25:28.872Z,95210.00
2023-12-11T08:26:28.942Z,95208.00
2023-12-11T08:27:29.288Z,95205.00
2023-12-11T08:28:29.018Z,95203.00
2023-12-11T08:29:29.063Z,95201.00
2023-12-11T08:30:29.119Z,95202.00
2023-12-11T08:31:29.251Z,95204.00
2023-12-11T08:32:29.254Z,95199.00
2023-12-11T08:33:29.277Z,95192.00
2023-12-11T08:34:29.435Z,95183.00
2023-12-11T08:35:29.392Z,95175.00
2023-12-11T08:36:29.425Z,95182.00
2023-12-11T08:37:29.724Z,95189.00
2023-12-11T08:38:29.533Z,95187.00
2023-12-11T08:39:29.568Z,95183.00
2023-12-11T08:40:29.662Z,95178.00
2023-12-11T08:41:29.672Z,95180.00
2023-12-11T08:42:30.060Z,95178.00
2023-12-11T08:43:29.841Z,95174.00
2023-12-11T08:44:29.822Z,95166.00
2023-12-11T08:45:29.881Z,95166.00
2023-12-11T08:46:29.921Z,95164.00
2023-12-11T08:47:30.103Z,95173.00
2023-12-11T08:48:30.166Z,95169.00
2023-12-11T08:49:30.187Z,95163.00
2023-12-11T08:50:30.135Z,95156.00
2023-12-11T08:51:30.227Z,95150.00
2023-12-11T08:52:30.237Z,95145.00
2023-12-11T08:53:30.267Z,95142.00
2023-12-11T08:54:30.358Z,95143.00
2023-12-11T08:55:30.467Z,95142.00
2023-12-11T09:02:43.331Z,95163.00
2023-12-11T09:03:07.427Z,95159.00
2023-12-11T09:39:14.749Z,95216.00
2023-12-11T09:45:27.836Z,95186.00
2023-12-11T09:45:50.916Z,95183.00
2023-12-11T10:37:43.736Z,95193.00
2023-12-11T10:38:18.141Z,95197.00
2023-12-11T10:43:25.587Z,95193.00
2023-12-11T10:44:01.506Z,95188.00
2023-12-11T11:37:56.316Z,95181.00
2023-12-11T12:01:43.662Z,95204.00
2023-12-11T12:02:06.380Z,95203.00
2023-12-11T12:03:06.549Z,95200.00
2023-12-11T12:04:06.387Z,95197.00
2023-12-11T12:05:07.715Z,95196.00
2023-12-11T12:08:08.621Z,95187.00
2023-12-11T12:08:29.851Z,95189.00
2023-12-11T12:09:29.408Z,95194.00
2023-12-11T12:10:29.626Z,95191.00
2023-12-11T12:11:29.798Z,95188.00
2023-12-11T12:12:29.532Z,95184.00
2023-12-11T12:28:35.053Z,95190.00
2023-12-11T12:29:11.689Z,95189.00
2023-12-11T12:30:11.613Z,95192.00
2023-12-11T12:31:11.697Z,95196.00
2023-12-11T12:32:11.587Z,95193.00
2023-12-11T12:39:22.626Z,95193.00
2023-12-11T12:39:48.501Z,95185.00
2023-12-11T12:48:19.925Z,95172.00
2023-12-11T12:48:41.584Z,95175.00
2023-12-11T12:49:41.425Z,95172.00
2023-12-11T12:50:41.247Z,95170.00
2023-12-11T12:51:41.281Z,95171.00
2023-12-11T12:52:41.213Z,95171.00
2023-12-11T12:53:41.192Z,95174.00
2023-12-11T12:54:41.241Z,95172.00
2023-12-11T12:55:41.252Z,95169.00
2023-12-11T12:56:41.379Z,95160.00
2023-12-11T12:57:41.176Z,95148.00
2023-12-11T12:58:41.157Z,95135.00
2023-12-11T12:59:41.232Z,95128.00
2023-12-11T13:00:41.349Z,95128.00
2023-12-11T13:01:41.284Z,95131.00
2023-12-11T13:02:41.965Z,95124.00
2023-12-11T13:03:41.151Z,95112.00
2023-12-11T13:04:41.153Z,95102.00
2023-12-11T13:05:41.134Z,95100.00
2023-12-11T13:06:41.161Z,95097.00
2023-12-11T13:07:41.070Z,95092.00
2023-12-11T13:08:41.033Z,95093.00
2023-12-11T13:09:41.058Z,95097.00
2023-12-11T13:10:41.031Z,95099.00
2023-12-11T13:11:41.388Z,95104.00
2023-12-11T13:12:41.158Z,95105.00
2023-12-11T13:13:41.002Z,95113.00
2023-12-11T13:14:41.002Z,95120.00
2023-12-11T13:15:41.188Z,95127.00
2023-12-11T13:21:53.142Z,95193.00
2023-12-11T13:22:14.795Z,95202.00
2023-12-11T13:23:14.387Z,95204.00
2023-12-11T13:24:14.406Z,95194.00
2023-12-11T13:25:14.466Z,95182.00
2023-12-11T13:26:14.372Z,95169.00
2023-12-11T13:27:14.410Z,95157.00
2023-12-11T13:28:14.507Z,95145.00
2023-12-11T13:29:14.374Z,95141.00
2023-12-11T13:30:14.377Z,95137.00
2023-12-11T13:31:14.432Z,95136.00
2023-12-11T13:32:14.476Z,95131.00
2023-12-11T13:33:14.394Z,95124.00
2023-12-11T13:34:14.405Z,95122.00
2023-12-11T13:35:14.584Z,95126.00
2023-12-11T13:36:14.276Z,95133.00
2023-12-11T13:37:14.380Z,95139.00
2023-12-11T13:38:14.289Z,95142.00
2023-12-11T13:39:14.335Z,95145.00
2023-12-11T13:40:14.435Z,95153.00
2023-12-11T13:41:14.438Z,95169.00
2023-12-11T13:42:14.476Z,95185.00
2023-12-11T13:43:14.578Z,95195.00
2023-12-11T13:44:14.249Z,95200.00
2023-12-11T13:45:14.250Z,95207.00
2023-12-11T14:47:01.509Z,95340.00
2023-12-11T14:47:22.453Z,95338.00
2023-12-11T14:48:22.653Z,95330.00
2023-12-11T14:49:22.934Z,95317.00
2023-12-11T14:50:22.899Z,95307.00
2023-12-11T14:51:23.704Z,95306.00
2023-12-11T14:52:22.459Z,95298.00
2023-12-11T14:53:22.404Z,95288.00
2023-12-11T14:54:22.373Z,95279.00
2023-12-11T14:55:25.574Z,95264.00
2023-12-11T14:56:22.416Z,95248.00
2023-12-11T14:57:22.397Z,95231.00
2023-12-11T15:22:21.687Z,95334.00
2023-12-11T15:22:43.458Z,95339.00
2023-12-11T15:39:54.512Z,95288.00
2023-12-11T15:40:17.940Z,95290.00
2023-12-11T16:02:01.454Z,95330.00
2023-12-11T16:02:24.110Z,95331.00
2023-12-11T16:03:24.276Z,95332.00
2023-12-11T16:04:24.067Z,95333.00
2023-12-11T16:05:24.009Z,95334.00
2023-12-11T16:06:24.114Z,95333.00
2023-12-11T16:07:24.053Z,95331.00
2023-12-11T16:08:24.037Z,95330.00
2023-12-11T16:09:24.149Z,95332.00
2023-12-11T16:10:24.035Z,95338.00
2023-12-11T16:11:23.987Z,95342.00
2023-12-11T16:12:23.938Z,95333.00
2023-12-11T16:13:23.974Z,95329.00
2023-12-11T16:14:23.960Z,95322.00
2023-12-11T16:15:23.951Z,95321.00
2023-12-11T16:16:23.935Z,95316.00
2023-12-11T16:17:23.911Z,95320.00
2023-12-11T16:18:24.093Z,95317.00
2023-12-11T16:19:23.983Z,95317.00
2023-12-11T16:20:23.876Z,95317.00
2023-12-11T16:21:23.856Z,95318.00
2023-12-11T16:22:25.983Z,95323.00
2023-12-11T16:23:23.933Z,95328.00
2023-12-11T16:24:23.860Z,95332.00
2023-12-11T16:25:47.781Z,95329.00
2023-12-11T16:26:24.868Z,95332.00
2023-12-11T16:53:29.681Z,95322.00
2023-12-11T16:53:52.467Z,95318.00
2023-12-11T16:54:52.629Z,95322.00
2023-12-11T16:55:52.384Z,95319.00
2023-12-11T16:56:52.407Z,95315.00
2023-12-11T16:57:52.382Z,95316.00
2023-12-11T16:58:52.362Z,95318.00
2023-12-11T16:59:52.338Z,95323.00
2023-12-11T17:00:52.423Z,95325.00
2023-12-11T17:01:52.479Z,95324.00
2023-12-11T17:02:52.327Z,95325.00
2023-12-11T17:03:52.382Z,95321.00
2023-12-11T17:04:52.414Z,95318.00
2023-12-11T17:05:52.310Z,95320.00
2023-12-11T17:06:52.310Z,95322.00
2023-12-11T17:07:52.287Z,95329.00
2023-12-11T17:08:52.289Z,95328.00
2023-12-11T17:09:52.357Z,95326.00
2023-12-11T17:51:23.994Z,95355.00
2023-12-11T17:51:49.364Z,95355.00
2023-12-11T17:52:49.495Z,95355.00
2023-12-11T17:53:49.247Z,95353.00
2023-12-11T17:54:49.448Z,95353.00
2023-12-11T17:55:49.209Z,95355.00
2023-12-11T17:56:49.210Z,95359.00
2023-12-11T17:57:49.232Z,95359.00
2023-12-11T17:58:49.204Z,95359.00
2023-12-11T17:59:49.162Z,95354.00
2023-12-11T18:00:49.353Z,95352.00
2023-12-11T18:01:49.287Z,95355.00
2023-12-11T18:02:49.148Z,95356.00
2023-12-11T18:03:49.200Z,95354.00
2023-12-11T18:04:49.244Z,95351.00
2023-12-11T18:05:49.152Z,95352.00
2023-12-11T18:06:49.219Z,95350.00
2023-12-11T18:07:49.094Z,95354.00
2023-12-11T18:08:49.085Z,95359.00
2023-12-11T18:09:49.144Z,95357.00
2023-12-11T18:10:49.098Z,95351.00
2023-12-11T18:11:49.074Z,95352.00
2023-12-11T18:12:49.128Z,95353.00
2023-12-11T18:13:49.027Z,95357.00
2023-12-11T18:14:49.041Z,95357.00
2023-12-11T18:15:49.064Z,95355.00
2023-12-11T18:16:49.020Z,95351.00